Time;durP1;ratioP1;P1;durP2;ratioP2;P2;SDS_P1;SDS_P2;PMS_P1;PMS_P2;Temp;Humidity;BMP_temperature;BMP_pressure;BME280_temperature;BME280_humidity;BME280_pressure;Samples;Min_cycle;Max_cycle;Signal;HPM_P1;HPM_P2
2024/01/19 00:02:10;;;;;;;12.05;8.10;;;;;;;-2.63;100.00;101084.38;5017013;28;20111;-88
2024/01/19 00:04:35;;;;;;;11.88;8.00;;;;;;;-2.62;100.00;101096.00;5001154;28;20490;-87
2024/01/19 00:07:01;;;;;;;13.10;8.40;;;;;;;-2.61;100.00;101103.09;5017806;28;20041;-88
2024/01/19 00:09:27;;;;;;;13.60;8.52;;;;;;;-2.62;100.00;101106.72;5017279;28;20044;-87
2024/01/19 00:11:53;;;;;;;13.43;8.85;;;;;;;-2.56;100.00;101119.97;5018296;28;20060;-88
2024/01/19 00:14:19;;;;;;;13.13;8.57;;;;;;;-2.52;100.00;101119.00;5017001;28;20033;-89
2024/01/19 00:16:46;;;;;;;12.07;8.80;;;;;;;-2.54;100.00;101120.84;4985203;28;20463;-89
2024/01/19 00:19:12;;;;;;;13.15;9.00;;;;;;;-2.59;100.00;101122.75;4985990;28;20041;-88
2024/01/19 00:21:43;;;;;;;12.88;8.60;;;;;;;-2.61;100.00;101128.13;5001573;28;20033;-89
2024/01/19 00:24:09;;;;;;;15.00;8.60;;;;;;;-2.62;100.00;101129.03;5001971;28;20044;-89
2024/01/19 00:26:37;;;;;;;11.07;8.10;;;;;;;-2.66;100.00;101127.31;5000886;28;20029;-89
2024/01/19 00:29:05;;;;;;;16.25;8.75;;;;;;;-2.65;100.00;101125.53;5017312;28;20049;-88
2024/01/19 00:31:31;;;;;;;12.45;8.73;;;;;;;-2.70;100.00;101127.44;4985319;28;20033;-89
2024/01/19 00:33:56;;;;;;;14.48;8.35;;;;;;;-2.71;100.00;101128.31;4985024;28;20034;-89
2024/01/19 00:36:23;;;;;;;12.65;8.80;;;;;;;-2.71;100.00;101133.69;5017414;28;20370;-88
2024/01/19 00:38:52;;;;;;;14.93;9.32;;;;;;;-2.83;100.00;101124.97;5000697;28;20033;-87
2024/01/19 00:41:26;;;;;;;15.18;8.88;;;;;;;-2.83;100.00;101133.00;5034197;28;20057;-87
2024/01/19 00:43:52;;;;;;;19.40;9.55;;;;;;;-2.77;100.00;101135.56;4985526;28;20483;-87
2024/01/19 00:46:17;;;;;;;18.17;9.07;;;;;;;-2.84;100.00;101146.44;5000648;28;20071;-87
2024/01/19 00:48:43;;;;;;;14.20;8.35;;;;;;;-2.92;100.00;101137.66;4984129;28;20052;-88
2024/01/19 00:51:09;;;;;;;13.10;8.35;;;;;;;-2.96;100.00;101137.72;4984596;28;20088;-87
2024/01/19 00:53:34;;;;;;;15.82;9.48;;;;;;;-2.96;100.00;101151.09;4984756;28;20041;-89
2024/01/19 00:56:01;;;;;;;14.18;9.50;;;;;;;-2.94;100.00;101156.44;5000554;28;20029;-89
2024/01/19 00:58:26;;;;;;;15.52;9.02;;;;;;;-2.94;100.00;101156.44;4984705;28;20044;-89
2024/01/19 01:00:52;;;;;;;15.38;9.18;;;;;;;-2.97;100.00;101152.03;4984566;28;20029;-89
2024/01/19 01:03:25;;;;;;;16.13;8.20;;;;;;;-2.99;100.00;101151.16;5001281;28;20553;-89
2024/01/19 01:05:58;;;;;;;19.48;10.77;;;;;;;-2.91;100.00;101144.78;5000683;28;20033;-88
2024/01/19 01:08:25;;;;;;;20.42;9.77;;;;;;;-3.00;100.00;101154.78;5033189;28;20021;-88
2024/01/19 01:10:50;;;;;;;14.18;9.23;;;;;;;-2.99;100.00;101158.31;5016954;28;20121;-88
2024/01/19 01:13:17;;;;;;;18.60;11.13;;;;;;;-2.97;100.00;101153.81;5016868;28;20049;-88
2024/01/19 01:15:42;;;;;;;19.15;11.18;;;;;;;-2.94;100.00;101160.91;5000293;28;20029;-88
2024/01/19 01:18:09;;;;;;;19.80;10.63;;;;;;;-2.94;100.00;101166.28;5034463;28;20025;-88
2024/01/19 01:20:34;;;;;;;24.60;10.88;;;;;;;-2.95;100.00;101170.75;5001006;28;20480;-88
2024/01/19 01:22:59;;;;;;;23.90;12.07;;;;;;;-2.94;100.00;101180.53;4990743;28;20026;-88
2024/01/19 01:25:26;;;;;;;19.25;11.30;;;;;;;-2.92;100.00;101176.03;4992829;28;20064;-88
2024/01/19 01:27:53;;;;;;;16.27;10.65;;;;;;;-2.97;100.00;101180.59;5008634;28;20045;-89
2024/01/19 01:30:22;;;;;;;23.88;12.57;;;;;;;-2.94;100.00;101180.53;4991127;28;20021;-89
2024/01/19 01:32:47;;;;;;;22.02;11.18;;;;;;;-2.87;100.00;101184.91;5020895;28;20029;-88
2024/01/19 01:35:13;;;;;;;20.80;12.38;;;;;;;-2.77;100.00;101177.56;4984414;28;20070;-89
2024/01/19 01:37:39;;;;;;;25.23;12.10;;;;;;;-2.93;100.00;101187.69;5000604;28;20044;-89
2024/01/19 01:40:05;;;;;;;24.33;12.05;;;;;;;-2.94;100.00;101180.53;4984267;28;20025;-89
2024/01/19 01:42:30;;;;;;;19.40;11.88;;;;;;;-2.89;100.00;101189.38;5016991;28;20037;-88
2024/01/19 01:44:56;;;;;;;17.85;11.70;;;;;;;-2.88;100.00;101196.50;5001046;28;20021;-90
2024/01/19 01:47:26;;;;;;;20.48;12.13;;;;;;;-2.89;100.00;101191.19;5017580;28;20057;-89
2024/01/19 01:49:54;;;;;;;18.77;11.95;;;;;;;-2.89;100.00;101189.38;5000904;28;20097;-89
2024/01/19 01:52:25;;;;;;;20.95;11.77;;;;;;;-2.94;100.00;101185.03;5000441;28;20033;-89
2024/01/19 01:54:53;;;;;;;21.25;12.15;;;;;;;-2.99;100.00;101188.66;5001092;28;20029;-89
2024/01/19 01:57:20;;;;;;;20.40;12.00;;;;;;;-3.06;100.00;101191.50;5001034;28;20029;-89
2024/01/19 01:59:50;;;;;;;18.58;11.73;;;;;;;-3.06;100.00;101205.75;5017205;28;20042;-89
2024/01/19 02:02:15;;;;;;;18.17;12.55;;;;;;;-3.06;100.00;101218.28;5000406;28;20032;-89
2024/01/19 02:04:41;;;;;;;25.05;13.52;;;;;;;-3.03;100.00;101219.09;4984136;28;20120;-89
2024/01/19 02:07:07;;;;;;;23.27;12.88;;;;;;;-3.02;100.00;101219.97;4985121;28;20030;-90
2024/01/19 02:09:32;;;;;;;23.60;12.88;;;;;;;-2.97;100.00;101229.72;5001307;28;20025;-89
2024/01/19 02:11:58;;;;;;;18.65;12.02;;;;;;;-2.98;100.00;101240.47;4985156;28;20068;-89
2024/01/19 02:14:24;;;;;;;22.63;13.35;;;;;;;-3.10;100.00;101233.50;4984886;28;20029;-89
2024/01/19 02:16:49;;;;;;;23.02;13.38;;;;;;;-3.06;100.00;101237.03;4985274;28;20025;-90
2024/01/19 02:19:15;;;;;;;25.48;13.20;;;;;;;-3.29;100.00;101232.91;5004848;28;20351;-90
2024/01/19 02:21:40;;;;;;;29.67;14.93;;;;;;;-3.20;100.00;101246.19;4987932;28;20083;-90
2024/01/19 02:24:12;;;;;;;30.23;14.25;;;;;;;-3.22;100.00;101247.97;5013208;28;20037;-89
2024/01/19 02:26:38;;;;;;;29.50;13.35;;;;;;;-3.18;100.00;101246.13;5029603;28;20021;-91
2024/01/19 02:29:05;;;;;;;34.85;15.65;;;;;;;-3.15;100.00;101248.75;5006236;28;20025;-90
2024/01/19 02:31:31;;;;;;;27.35;13.52;;;;;;;-3.15;100.00;101246.06;4989604;28;20035;-90
2024/01/19 02:33:58;;;;;;;29.65;13.68;;;;;;;-3.16;100.00;101234.50;5020581;28;20025;-90
2024/01/19 02:36:25;;;;;;;26.27;13.98;;;;;;;-3.05;100.00;101242.34;4987958;28;20033;-90
2024/01/19 02:38:51;;;;;;;29.60;15.75;;;;;;;-2.98;100.00;101251.16;5020681;28;20033;-89
2024/01/19 02:41:18;;;;;;;46.97;16.88;;;;;;;-3.01;100.00;101252.09;4987972;28;20025;-90
2024/01/19 02:43:44;;;;;;;34.38;15.70;;;;;;;-2.92;100.00;101253.72;5003679;28;20399;-90
2024/01/19 02:46:10;;;;;;;39.10;16.20;;;;;;;-2.82;100.00;101251.78;4987952;28;20029;-90
2024/01/19 02:48:36;;;;;;;37.47;16.45;;;;;;;-2.78;100.00;101256.19;5004342;28;20570;-90
2024/01/19 02:51:01;;;;;;;31.95;15.73;;;;;;;-2.86;100.00;101258.09;4988657;28;20045;-90
2024/01/19 02:53:27;;;;;;;34.20;16.70;;;;;;;-2.80;100.00;101244.63;4987976;28;20033;-90
2024/01/19 02:55:52;;;;;;;34.63;16.63;;;;;;;-2.85;100.00;101249.19;4987673;28;20038;-92
2024/01/19 02:58:17;;;;;;;36.33;16.88;;;;;;;-2.77;100.00;101250.78;4987063;28;20036;-92
2024/01/19 03:00:44;;;;;;;37.45;16.30;;;;;;;-2.80;100.00;101253.53;4986984;28;20030;-91
2024/01/19 03:03:09;;;;;;;37.85;16.58;;;;;;;-2.72;100.00;101252.50;5019386;28;20025;-91
2024/01/19 03:05:35;;;;;;;28.42;15.55;;;;;;;-2.76;100.00;101259.72;5003494;28;20037;-89
2024/01/19 03:08:00;;;;;;;35.20;16.33;;;;;;;-2.84;100.00;101262.50;5003580;28;20029;-91
2024/01/19 03:10:26;;;;;;;29.75;15.05;;;;;;;-2.87;100.00;101267.03;4987299;28;20028;-91
2024/01/19 03:12:52;;;;;;;30.13;16.13;;;;;;;-2.85;100.00;101263.44;5002871;28;20124;-91
2024/01/19 03:15:18;;;;;;;37.33;16.17;;;;;;;-2.97;100.00;101252.91;4988146;28;20119;-91
2024/01/19 03:17:43;;;;;;;36.78;16.60;;;;;;;-2.94;100.00;101270.75;4986390;28;20110;-91
2024/01/19 03:20:09;;;;;;;35.92;16.90;;;;;;;-2.95;100.00;101269.88;4986665;28;20029;-91
2024/01/19 03:22:34;;;;;;;27.15;15.15;;;;;;;-2.91;100.00;101276.94;5003152;28;20040;-90
2024/01/19 03:25:01;;;;;;;36.13;16.90;;;;;;;-2.97;100.00;101271.66;4986701;28;20049;-90
2024/01/19 03:27:26;;;;;;;33.40;16.05;;;;;;;-2.96;100.00;101282.38;4987567;28;20506;-90
2024/01/19 03:29:52;;;;;;;37.42;16.30;;;;;;;-2.94;100.00;101292.19;4987117;28;20033;-90
2024/01/19 03:32:17;;;;;;;32.55;15.38;;;;;;;-2.91;100.00;101287.66;4986714;28;20033;-91
2024/01/19 03:34:43;;;;;;;30.40;14.88;;;;;;;-2.96;100.00;101281.50;4986748;28;20043;-90
2024/01/19 03:37:09;;;;;;;37.42;17.05;;;;;;;-3.00;100.00;101287.78;5018173;28;20033;-90
2024/01/19 03:39:34;;;;;;;41.08;16.23;;;;;;;-3.04;100.00;101281.59;4986182;28;20044;-91
2024/01/19 03:42:00;;;;;;;32.08;14.52;;;;;;;-3.01;100.00;101283.34;4986673;28;20036;-90
2024/01/19 03:44:26;;;;;;;35.40;15.10;;;;;;;-2.94;100.00;101281.47;5002033;28;20124;-88
2024/01/19 03:46:52;;;;;;;28.92;14.35;;;;;;;-3.00;100.00;101274.41;5018211;28;20470;-89
2024/01/19 03:49:18;;;;;;;26.75;13.10;;;;;;;-2.91;100.00;101271.56;5021724;28;20395;-89
2024/01/19 03:51:59;;;;;;;23.77;13.23;;;;;;;-2.92;100.00;101267.13;5022344;28;20021;-89
2024/01/19 03:54:26;;;;;;;27.55;13.48;;;;;;;-2.83;100.00;101275.00;5006429;28;20029;-90
2024/01/19 03:56:53;;;;;;;24.13;12.13;;;;;;;-2.78;100.00;101273.13;4990368;28;20025;-90
2024/01/19 03:59:18;;;;;;;23.13;11.77;;;;;;;-2.82;100.00;101270.53;5036442;28;20044;-90
2024/01/19 04:01:43;;;;;;;29.48;12.88;;;;;;;-2.78;100.00;101278.50;5018389;28;20021;-89
2024/01/19 04:04:09;;;;;;;22.55;11.48;;;;;;;-2.75;100.00;101276.66;4985333;28;20044;-89
2024/01/19 04:06:34;;;;;;;21.38;11.82;;;;;;;-2.72;100.00;101284.66;4986302;28;20490;-89
2024/01/19 04:09:00;;;;;;;20.92;11.57;;;;;;;-2.71;100.00;101283.75;4986888;28;20061;-90
2024/01/19 04:11:25;;;;;;;21.70;11.35;;;;;;;-2.72;100.00;101281.97;4986114;28;20057;-90
2024/01/19 04:13:51;;;;;;;19.83;8.40;;;;;;;-2.72;100.00;101290.91;4987287;28;20025;-90
2024/01/19 04:16:16;;;;;;;21.30;11.75;;;;;;;-2.78;100.00;101283.84;4986920;28;20029;-90
2024/01/19 04:18:41;;;;;;;23.08;11.20;;;;;;;-2.76;100.00;101291.88;4987312;28;20029;-89
2024/01/19 04:21:07;;;;;;;16.58;11.35;;;;;;;-2.79;100.00;101300.84;4988296;28;20487;-90
2024/01/19 04:23:32;;;;;;;16.67;10.35;;;;;;;-2.75;100.00;101290.06;5002858;28;20044;-92
2024/01/19 04:25:58;;;;;;;20.83;10.73;;;;;;;-2.79;100.00;101286.56;4997069;28;20124;-91
2024/01/19 04:28:23;;;;;;;23.38;10.98;;;;;;;-2.82;100.00;101287.50;5018271;28;20029;-91
2024/01/19 04:30:49;;;;;;;13.35;9.70;;;;;;;-2.76;100.00;101297.22;4986215;28;20457;-92
2024/01/19 04:33:14;;;;;;;15.40;10.20;;;;;;;-2.78;100.00;101297.25;4985449;28;20033;-90
2024/01/19 04:35:39;;;;;;;16.95;10.57;;;;;;;-2.70;100.00;101307.84;4985281;28;20026;-90
2024/01/19 04:38:05;;;;;;;16.13;10.73;;;;;;;-2.79;100.00;101326.75;4985069;28;20041;-90
2024/01/19 04:40:31;;;;;;;18.88;10.77;;;;;;;-2.78;100.00;101316.00;4985077;28;20026;-90
2024/01/19 04:42:57;;;;;;;15.18;10.52;;;;;;;-2.77;100.00;101322.28;4986471;28;20033;-90
2024/01/19 04:45:22;;;;;;;22.25;12.23;;;;;;;-2.67;100.00;101328.31;5000965;28;20083;-90
2024/01/19 04:47:48;;;;;;;21.13;12.43;;;;;;;-2.64;100.00;101337.22;4984886;28;20147;-91
2024/01/19 04:50:13;;;;;;;20.77;12.20;;;;;;;-2.62;100.00;101338.09;4984915;28;20030;-90
2024/01/19 04:52:39;;;;;;;18.35;10.80;;;;;;;-2.71;100.00;101335.53;5017082;28;20036;-91
2024/01/19 04:55:04;;;;;;;28.38;13.27;;;;;;;-2.59;100.00;101343.41;4985099;28;20091;-91
2024/01/19 04:57:30;;;;;;;28.40;13.00;;;;;;;-2.62;100.00;101337.22;5001079;28;20395;-92
2024/01/19 04:59:55;;;;;;;17.73;10.98;;;;;;;-2.60;100.00;101338.06;5001127;28;20036;-91
2024/01/19 05:02:23;;;;;;;19.17;12.23;;;;;;;-2.58;100.00;101338.91;4984905;28;20034;-91
2024/01/19 05:04:48;;;;;;;26.13;13.82;;;;;;;-2.53;100.00;101352.25;4985100;28;20171;-92
2024/01/19 05:07:14;;;;;;;28.02;14.88;;;;;;;-2.46;100.00;101368.19;5002077;28;20033;-92
2024/01/19 05:09:39;;;;;;;29.60;13.88;;;;;;;-2.52;100.00;101357.56;4985017;28;20159;-91
2024/01/19 05:12:06;;;;;;;24.95;13.85;;;;;;;-2.52;100.00;101364.75;4984930;28;20479;-92
2024/01/19 05:14:31;;;;;;;28.30;13.57;;;;;;;-2.52;100.00;101373.66;5001278;28;20098;-92
2024/01/19 05:16:57;;;;;;;25.52;14.35;;;;;;;-2.47;100.00;101366.41;4985351;28;20570;-92
2024/01/19 05:19:22;;;;;;;25.33;14.27;;;;;;;-2.51;100.00;101372.75;5001367;28;20056;-92
2024/01/19 05:21:49;;;;;;;27.98;14.63;;;;;;;-2.58;100.00;101366.59;4984840;28;20479;-91
2024/01/19 05:24:14;;;;;;;25.05;13.07;;;;;;;-2.55;100.00;101359.44;4984965;28;20025;-91
2024/01/19 05:26:40;;;;;;;28.80;14.85;;;;;;;-2.59;100.00;101363.97;4987800;28;20406;-89
2024/01/19 05:29:05;;;;;;;25.92;15.40;;;;;;;-2.61;100.00;101380.06;5001348;28;20030;-90
2024/01/19 05:31:31;;;;;;;31.02;16.63;;;;;;;-2.69;100.00;101365.91;4987220;28;20037;-91
2024/01/19 05:33:56;;;;;;;29.83;15.88;;;;;;;-2.65;100.00;101380.13;5003381;28;20029;-90
2024/01/19 05:36:23;;;;;;;29.88;15.77;;;;;;;-2.69;100.00;101390.03;4989398;28;20053;-89
2024/01/19 05:38:49;;;;;;;24.77;14.07;;;;;;;-2.60;100.00;101388.97;4990005;28;20108;-88
2024/01/19 05:41:21;;;;;;;32.65;16.20;;;;;;;-2.63;100.00;101394.38;5020514;28;20079;-89
2024/01/19 05:43:46;;;;;;;32.10;15.75;;;;;;;-2.57;100.00;101410.38;5008738;28;20041;-86
2024/01/19 05:46:13;;;;;;;30.42;16.10;;;;;;;-2.65;100.00;101412.28;4983249;28;20026;-88
2024/01/19 05:48:39;;;;;;;31.55;15.02;;;;;;;-2.73;100.00;101407.03;5021482;28;20057;-88
2024/01/19 05:51:13;;;;;;;28.67;15.88;;;;;;;-2.69;100.00;101415.91;5002813;28;20033;-87
2024/01/19 05:53:38;;;;;;;28.20;15.35;;;;;;;-2.70;100.00;101430.25;5019153;28;20030;-91
2024/01/19 05:56:04;;;;;;;27.45;16.20;;;;;;;-2.77;100.00;101430.31;4993676;28;20075;-89
2024/01/19 05:58:30;;;;;;;29.00;15.70;;;;;;;-2.74;100.00;101442.78;4996383;28;20101;-90
2024/01/19 06:00:55;;;;;;;30.85;15.40;;;;;;;-2.85;100.00;101437.59;4995558;28;20033;-90
2024/01/19 06:03:21;;;;;;;32.97;15.38;;;;;;;-2.79;100.00;101445.56;5025810;28;20467;-89
2024/01/19 06:05:46;;;;;;;28.73;16.00;;;;;;;-2.80;100.00;101454.50;5030728;28;20044;-89
2024/01/19 06:08:12;;;;;;;30.58;15.52;;;;;;;-2.86;100.00;101462.59;5015251;28;20025;-89
2024/01/19 06:10:38;;;;;;;33.30;16.23;;;;;;;-2.77;100.00;101470.53;5019086;28;20093;-90
2024/01/19 06:13:03;;;;;;;30.65;16.00;;;;;;;-2.82;100.00;101464.34;5001976;28;20097;-90
2024/01/19 06:15:29;;;;;;;27.50;14.82;;;;;;;-2.92;100.00;101461.81;4999248;28;20086;-90
2024/01/19 06:17:56;;;;;;;24.50;14.20;;;;;;;-2.82;100.00;101467.03;5033307;28;20052;-89
2024/01/19 06:20:22;;;;;;;31.25;15.95;;;;;;;-2.82;100.00;101466.13;5032111;28;20037;-90
2024/01/19 06:22:49;;;;;;;27.63;14.85;;;;;;;-2.74;100.00;101482.09;5005331;28;20029;-87
2024/01/19 06:25:15;;;;;;;24.90;13.45;;;;;;;-2.76;100.00;101490.16;5005275;28;20041;-89
2024/01/19 06:27:40;;;;;;;28.13;14.88;;;;;;;-2.66;100.00;101490.91;5005661;28;20487;-89
2024/01/19 06:30:07;;;;;;;29.80;16.33;;;;;;;-2.58;100.00;101513.13;5004546;28;20110;-89
2024/01/19 06:32:32;;;;;;;30.00;14.27;;;;;;;-2.58;100.00;101523.84;4987952;28;20053;-89
2024/01/19 06:34:59;;;;;;;28.85;15.65;;;;;;;-2.56;100.00;101529.19;5003889;28;20036;-89
2024/01/19 06:37:24;;;;;;;27.08;15.60;;;;;;;-2.55;100.00;101539.91;5020167;28;20021;-89
2024/01/19 06:39:50;;;;;;;29.10;16.20;;;;;;;-2.52;100.00;101537.19;4987106;28;20083;-89
2024/01/19 06:42:15;;;;;;;29.80;15.15;;;;;;;-2.51;100.00;101536.28;5004450;28;20036;-89
2024/01/19 06:44:44;;;;;;;25.33;14.75;;;;;;;-2.45;100.00;101544.22;4987134;28;20034;-89
2024/01/19 06:47:09;;;;;;;29.10;15.23;;;;;;;-2.46;100.00;101553.19;4987081;28;20032;-89
2024/01/19 06:49:36;;;;;;;30.92;15.18;;;;;;;-2.54;100.00;101540.78;5019463;28;20050;-89
2024/01/19 06:52:04;;;;;;;25.10;14.63;;;;;;;-2.55;100.00;101534.53;5036908;28;20026;-89
2024/01/19 06:54:31;;;;;;;27.98;14.50;;;;;;;-2.60;100.00;101539.97;4987967;28;20411;-90
2024/01/19 06:56:56;;;;;;;29.90;15.68;;;;;;;-2.63;100.00;101545.34;5003881;28;20441;-91
2024/01/19 06:59:22;;;;;;;27.48;15.07;;;;;;;-2.68;100.00;101541.84;4987807;28;20029;-89
2024/01/19 07:01:47;;;;;;;24.05;13.32;;;;;;;-2.77;100.00;101544.69;5004463;28;20026;-90
2024/01/19 07:04:13;;;;;;;22.70;13.85;;;;;;;-2.78;100.00;101540.22;5004046;28;20037;-90
2024/01/19 07:06:38;;;;;;;28.50;14.57;;;;;;;-2.86;100.00;101536.75;4987442;28;20060;-90
2024/01/19 07:09:06;;;;;;;25.50;13.93;;;;;;;-2.81;100.00;101548.28;4987378;28;20038;-91
2024/01/19 07:11:31;;;;;;;27.38;14.45;;;;;;;-2.89;100.00;101542.13;4986934;28;20483;-91
2024/01/19 07:13:58;;;;;;;27.83;13.98;;;;;;;-2.82;100.00;101559.91;5003604;28;20037;-90
2024/01/19 07:16:23;;;;;;;23.65;13.00;;;;;;;-2.94;100.00;101544.88;5003234;28;20025;-90
2024/01/19 07:18:49;;;;;;;23.95;14.20;;;;;;;-2.97;100.00;101556.53;4987268;28;20030;-90
2024/01/19 07:21:15;;;;;;;23.80;12.98;;;;;;;-2.93;100.00;101562.72;4987282;28;20094;-88
2024/01/19 07:23:40;;;;;;;26.23;13.40;;;;;;;-2.94;100.00;101570.78;4990141;28;20033;-90
2024/01/19 07:26:05;;;;;;;28.45;13.80;;;;;;;-3.05;100.00;101561.09;4988515;28;20029;-87
2024/01/19 07:28:31;;;;;;;24.75;13.45;;;;;;;-2.97;100.00;101583.31;5002293;28;20436;-87
2024/01/19 07:30:56;;;;;;;25.70;13.60;;;;;;;-3.01;100.00;101580.69;4986170;28;20580;-93
2024/01/19 07:33:22;;;;;;;25.55;13.70;;;;;;;-2.95;100.00;101602.06;5003323;28;20029;-91
2024/01/19 07:35:48;;;;;;;22.13;12.95;;;;;;;-3.01;100.00;101592.28;4991912;28;20030;-92
2024/01/19 07:38:14;;;;;;;19.85;11.88;;;;;;;-3.03;100.00;101591.41;5006109;28;20041;-91
2024/01/19 07:40:39;;;;;;;23.27;13.10;;;;;;;-2.98;100.00;101599.41;4987248;28;20025;-89
2024/01/19 07:43:05;;;;;;;21.00;11.82;;;;;;;-2.97;100.00;101604.75;4988707;28;20030;-95
2024/01/19 07:45:31;;;;;;;21.00;12.43;;;;;;;-3.01;100.00;101612.81;4988561;28;20124;-94
2024/01/19 07:47:56;;;;;;;19.27;12.93;;;;;;;-3.07;100.00;101594.13;5004362;28;20084;-92
2024/01/19 07:50:22;;;;;;;19.40;12.15;;;;;;;-3.00;100.00;101622.63;5004215;28;20049;-89
2024/01/19 07:52:48;;;;;;;23.80;13.60;;;;;;;-2.96;100.00;101627.94;5005952;28;20026;-93
2024/01/19 07:55:16;;;;;;;20.02;11.90;;;;;;;-3.00;100.00;101627.97;5016446;28;20038;-96
2024/01/19 07:57:41;;;;;;;20.90;12.27;;;;;;;-3.11;100.00;101606.69;5014216;28;20029;-96
2024/01/19 08:00:08;;;;;;;17.27;12.02;;;;;;;-2.97;100.00;101628.84;5027089;28;20112;-93
2024/01/19 08:02:34;;;;;;;19.88;11.43;;;;;;;-2.91;100.00;101627.00;5046962;28;20026;-96
2024/01/19 08:04:59;;;;;;;16.45;10.07;;;;;;;-2.96;100.00;101629.72;5004725;28;20040;-92
2024/01/19 08:07:26;;;;;;;18.30;11.05;;;;;;;-2.92;100.00;101627.91;5001093;28;20392;-93
2024/01/19 08:09:51;;;;;;;23.27;12.43;;;;;;;-2.89;100.00;101627.88;5000517;28;20030;-93
2024/01/19 08:12:17;;;;;;;17.30;10.77;;;;;;;-2.80;100.00;101636.69;5021066;28;20026;-95
2024/01/19 11:18:27;;;;;;;9.02;5.15;;;;;;;1.19;100.00;101816.03;5020092;28;20030;-94
2024/01/19 11:20:52;;;;;;;8.88;4.55;;;;;;;1.26;100.00;101807.75;4986807;28;20053;-93
2024/01/19 11:23:20;;;;;;;6.95;4.95;;;;;;;1.35;100.00;101813.84;5020077;28;20015;-91
2024/01/19 11:25:51;;;;;;;8.95;5.20;;;;;;;1.48;100.00;101815.31;4984950;28;20014;-93
2024/01/19 11:28:27;;;;;;;8.75;5.57;;;;;;;1.15;100.00;101817.00;4999994;28;20484;-93
2024/01/19 11:31:25;;;;;;;7.85;5.28;;;;;;;1.19;100.00;101819.59;4999101;28;20033;-92
2024/01/19 11:33:55;;;;;;;6.53;5.63;;;;;;;1.16;100.00;101810.72;4997484;28;20034;-87
2024/01/19 11:36:48;;;;;;;6.00;4.63;;;;;;;1.24;100.00;101819.50;4996763;28;20488;-88
2024/01/19 11:39:37;;;;;;;8.23;5.05;;;;;;;1.14;100.00;101815.25;4978375;28;20034;-87
2024/01/19 11:42:02;;;;;;;6.43;5.10;;;;;;;1.07;100.00;101822.63;4979036;28;20092;-88
2024/01/19 11:44:43;;;;;;;12.00;5.97;;;;;;;1.16;100.00;101814.28;4995598;28;20030;-89
2024/01/19 11:47:10;;;;;;;6.20;5.07;;;;;;;1.21;100.00;101820.44;4963388;28;20152;-88
2024/01/19 11:49:37;;;;;;;10.68;6.03;;;;;;;1.26;100.00;101825.72;4980203;28;20034;-93
2024/01/19 11:52:23;;;;;;;8.85;6.30;;;;;;;1.27;100.00;101822.13;4996183;28;20034;-88
2024/01/19 11:54:49;;;;;;;9.05;5.55;;;;;;;1.26;100.00;101828.44;4994765;28;20030;-88
2024/01/19 11:57:19;;;;;;;8.80;6.05;;;;;;;1.27;100.00;101828.38;4994944;28;20046;-91
2024/01/19 11:59:47;;;;;;;6.80;5.82;;;;;;;1.24;100.00;101828.47;4994408;28;20081;-88
2024/01/19 12:02:33;;;;;;;9.93;6.40;;;;;;;1.24;100.00;101828.47;4961522;28;20042;-88
2024/01/19 12:05:08;;;;;;;8.35;5.97;;;;;;;1.07;100.00;101825.31;4964887;28;20469;-88
2024/01/19 12:07:33;;;;;;;7.95;4.78;;;;;;;1.04;100.00;101830.78;4995149;28;20536;-87
2024/01/19 12:10:19;;;;;;;13.32;6.45;;;;;;;1.05;100.00;101835.22;4978209;28;20026;-87
2024/01/19 12:12:47;;;;;;;7.47;5.57;;;;;;;0.98;100.00;101830.91;4994639;28;20034;-86
2024/01/19 12:15:17;;;;;;;11.43;6.70;;;;;;;1.02;100.00;101840.72;4995221;28;20073;-87
2024/01/19 12:17:44;;;;;;;10.88;6.25;;;;;;;1.04;100.00;101839.75;4996949;28;20050;-88
2024/01/19 12:20:15;;;;;;;9.98;5.97;;;;;;;1.01;100.00;101844.31;4996560;28;20034;-88
2024/01/19 12:22:50;;;;;;;9.65;6.22;;;;;;;0.98;100.00;101839.88;4995839;28;20045;-88
2024/01/19 12:25:23;;;;;;;11.75;6.85;;;;;;;1.04;100.00;101844.25;4978857;28;20030;-87
2024/01/19 12:27:49;;;;;;;8.10;6.07;;;;;;;1.04;100.00;101836.16;4979111;28;20123;-87
2024/01/19 12:30:19;;;;;;;8.43;6.72;;;;;;;0.95;100.00;101833.66;4978017;28;20105;-88
2024/01/19 12:32:45;;;;;;;10.65;6.90;;;;;;;1.03;100.00;101847.84;4973749;28;20404;-87
2024/01/19 12:35:15;;;;;;;7.32;6.35;;;;;;;1.01;100.00;101842.50;4994789;28;20033;-88
2024/01/19 12:37:41;;;;;;;9.73;6.60;;;;;;;1.09;100.00;101845.03;4978861;28;20034;-88
2024/01/19 12:40:25;;;;;;;10.75;6.82;;;;;;;1.12;100.00;101846.78;4995166;28;20161;-88
2024/01/19 12:42:52;;;;;;;9.45;7.07;;;;;;;1.14;100.00;101844.94;4994826;28;20619;-88
2024/01/19 12:45:19;;;;;;;10.25;6.35;;;;;;;1.12;100.00;101844.09;4979695;28;20022;-88
2024/01/19 12:47:47;;;;;;;9.00;6.88;;;;;;;1.13;100.00;101829.66;4978401;28;20169;-87
2024/01/19 12:50:13;;;;;;;10.88;7.10;;;;;;;1.19;100.00;101840.31;4995170;28;20026;-90
2024/01/19 12:52:39;;;;;;;8.65;6.30;;;;;;;1.17;100.00;101837.63;4994759;28;20105;-89
2024/01/19 12:55:06;;;;;;;13.07;7.35;;;;;;;1.18;100.00;101841.22;4963227;28;20030;-90
2024/01/19 12:57:32;;;;;;;10.65;7.03;;;;;;;1.20;100.00;101842.97;4995868;28;20061;-90
2024/01/19 13:00:11;;;;;;;12.55;7.47;;;;;;;1.23;100.00;101837.50;4962654;28;20480;-90
2024/01/19 13:02:39;;;;;;;12.40;6.70;;;;;;;1.27;100.00;101843.69;4979247;28;20050;-91
2024/01/19 13:05:05;;;;;;;11.82;7.00;;;;;;;1.23;100.00;101837.50;4979610;28;20125;-91
2024/01/19 13:07:30;;;;;;;9.77;6.88;;;;;;;1.34;100.00;101847.13;4995564;28;20065;-89
2024/01/19 13:10:05;;;;;;;10.93;6.65;;;;;;;1.32;100.00;101852.56;4969500;28;20098;-90
2024/01/19 13:12:36;;;;;;;12.13;7.18;;;;;;;1.20;100.00;101845.66;4979903;28;20031;-89
2024/01/19 13:15:06;;;;;;;12.13;6.88;;;;;;;1.26;100.00;101850.00;4994967;28;20064;-87
2024/01/19 13:17:31;;;;;;;11.55;7.35;;;;;;;1.25;100.00;101851.81;4989909;28;20061;-86
2024/01/19 13:19:58;;;;;;;12.13;7.60;;;;;;;1.31;100.00;101849.91;4976863;28;20038;-87
2024/01/19 13:22:24;;;;;;;8.60;6.55;;;;;;;1.39;100.00;101854.16;4961510;28;20038;-88
2024/01/19 13:24:52;;;;;;;9.32;6.40;;;;;;;1.39;100.00;101858.69;4961868;28;20088;-87
2024/01/19 13:27:18;;;;;;;8.48;6.50;;;;;;;1.46;100.00;101861.22;4979365;28;20030;-87
2024/01/19 13:29:43;;;;;;;7.72;5.95;;;;;;;1.44;100.00;101865.78;4964761;28;20033;-89
2024/01/19 13:32:10;;;;;;;10.63;7.07;;;;;;;1.40;100.00;101868.56;4963147;28;20041;-89
2024/01/19 13:34:35;;;;;;;10.65;6.90;;;;;;;1.41;100.00;101876.63;4979852;28;20026;-90
2024/01/19 13:37:02;;;;;;;10.82;6.95;;;;;;;1.47;100.00;101876.47;4980739;28;20452;-90
2024/01/19 13:39:28;;;;;;;13.32;7.05;;;;;;;1.39;100.00;101882.97;4998950;28;20030;-91
2024/01/19 13:41:55;;;;;;;9.55;6.63;;;;;;;1.33;100.00;101883.13;4983800;28;20054;-90
2024/01/19 13:44:20;;;;;;;10.75;7.25;;;;;;;1.34;100.00;101883.09;4968363;28;20038;-90
2024/01/19 13:46:46;;;;;;;11.60;7.32;;;;;;;1.34;100.00;101885.78;4970365;28;20030;-88
2024/01/19 13:49:12;;;;;;;9.98;6.70;;;;;;;1.53;100.00;101891.63;4967175;28;20471;-90
2024/01/19 13:51:41;;;;;;;10.38;6.93;;;;;;;1.46;100.00;101892.72;4984818;28;20034;-88
2024/01/19 13:54:06;;;;;;;11.07;6.72;;;;;;;1.49;100.00;101892.59;4984733;28;20584;-91
2024/01/19 13:56:33;;;;;;;9.10;6.72;;;;;;;1.54;100.00;101906.91;4986880;28;20058;-89
2024/01/19 13:59:00;;;;;;;10.35;6.32;;;;;;;1.70;100.00;101901.13;4973306;28;20026;-88
2024/01/19 14:01:25;;;;;;;10.57;6.45;;;;;;;1.66;100.00;101905.72;4965105;28;20070;-89
2024/01/19 14:03:53;;;;;;;11.50;6.78;;;;;;;1.63;100.00;101908.47;4978725;28;20034;-88
2024/01/19 14:06:19;;;;;;;9.80;6.30;;;;;;;1.68;100.00;101913.78;4977584;28;20030;-87
2024/01/19 14:08:51;;;;;;;7.60;6.00;;;;;;;1.70;100.00;101912.78;4993258;28;20418;-87
2024/01/19 14:11:20;;;;;;;10.32;6.25;;;;;;;1.70;100.00;101917.31;4993473;28;20027;-87